3AU

Augusta Municipal Airport

Augusta, Kansas, USA
METAR K3AU 181255Z AUTO 18012KT 10SM CLR 25/21 A3000 RMK AO2
Observed Flight Rules
Jun-18 @ 12:55 UTC (20 minutes ago) Visual Flight Rules
Wind Visibility Clouds
180° at 12 knots 10 miles
  • Clear skies
Temperatures Readings
Current 25°C / 77°F
Dewpoint 21°C / 70°F
Humidity 79%
Altimeter 30" Hg
Pressure 1016 hPa
Elevation 405
METAR K3AU 181255Z AUTO 18012KT 10SM CLR 25/21 A3000 RMK AO2
Observed Flight Rules
Jun-18 @ 12:55 UTC
(20 minutes ago)
VFR
Wind Visibility
180° at 12 knots 10 miles
Clouds
  • Clear skies
Temperature Dewpoint
25°C / 77°F 21°C / 70°F
Humidity Altimeter Pressure
79% 30" Hg 1016 hPa